Terminal Aerodrome Forecast
Issued by NWS Bismarck, ND

Home | Current Version | Previous Version | Text Only | Print | Product List | Glossary On
Versions: 1 2 3 4 5 6 7 8 9 10 11 12 13 14
000
FTUS43 KBIS 281100
TAFISN
TAF
KISN 281129Z 2812/2912 VRB03KT P6SM SCT150 BKN200
      TEMPO 2814/2816 34008KT 1/2SM FG BKN004 OVC006
     FM281600 33015KT 3/4SM BR VCSH OVC004
     FM281900 32018G25KT P6SM -SHSN BKN005 OVC008
     FM290100 31014G19KT P6SM -SHSN OVC006
     FM290600 32011KT 5SM -SHSN BR OVC008=

USA.gov is the U.S. government's official web portal to all federal, state and local government web resources and services.